Time;durP1;ratioP1;P1;durP2;ratioP2;P2;SDS_P1;SDS_P2;PMS_P1;PMS_P2;Temp;Humidity;BMP_temperature;BMP_pressure;BME280_temperature;BME280_humidity;BME280_pressure;Samples;Min_cycle;Max_cycle;Signal;HPM_P1;HPM_P2
2022/11/28 00:01:24;;;;;;;7.18;5.50;;;1.50;99.90;;;;;;5054677;28;20128;-63
2022/11/28 00:03:51;;;;;;;;;;;1.60;99.90;;;;;;5053857;28;20079;-61
2022/11/28 00:06:18;;;;;;;7.40;5.43;;;1.60;99.90;;;;;;5052477;28;20540;-62
2022/11/28 00:08:45;;;;;;;5.90;4.88;;;1.60;99.90;;;;;;5048432;28;20049;-63
2022/11/28 00:11:14;;;;;;;6.80;4.90;;;1.70;99.90;;;;;;5056594;28;20048;-62
2022/11/28 00:13:41;;;;;;;6.03;5.25;;;1.70;99.90;;;;;;5053680;28;20045;-62
2022/11/28 00:16:11;;;;;;;8.15;5.70;;;1.70;99.90;;;;;;5055997;28;20129;-63
2022/11/28 00:18:39;;;;;;;7.68;5.88;;;1.70;99.90;;;;;;5057323;28;20135;-62
2022/11/28 00:21:09;;;;;;;7.55;6.35;;;1.70;99.90;;;;;;5058573;28;20139;-63
2022/11/28 00:23:36;;;;;;;8.05;6.40;;;1.70;99.90;;;;;;5060416;28;20524;-63
2022/11/28 00:26:07;;;;;;;7.65;6.65;;;1.70;99.90;;;;;;5060708;28;20478;-62
2022/11/28 00:28:35;;;;;;;9.32;7.35;;;1.80;99.90;;;;;;5056058;28;20120;-62
2022/11/28 00:31:02;;;;;;;8.38;6.57;;;1.80;99.90;;;;;;5054728;28;20039;-64
2022/11/28 00:33:31;;;;;;;9.60;6.72;;;1.80;99.90;;;;;;5055514;28;20056;-64
2022/11/28 00:36:00;;;;;;;7.00;6.05;;;1.80;99.90;;;;;;5058249;28;20391;-62
2022/11/28 00:38:27;;;;;;;6.55;5.80;;;1.80;99.90;;;;;;5054609;28;20056;-62
2022/11/28 00:40:59;;;;;;;8.07;6.97;;;1.80;99.90;;;;;;5057900;28;20534;-61
2022/11/28 00:43:27;;;;;;;9.43;7.43;;;1.80;99.90;;;;;;5055538;28;20045;-62
2022/11/28 00:45:54;;;;;;;7.22;5.95;;;1.90;99.90;;;;;;5058602;28;20147;-62
2022/11/28 00:48:21;;;;;;;8.43;7.55;;;1.90;99.90;;;;;;5054816;28;20048;-61
2022/11/28 00:50:49;;;;;;;8.85;7.03;;;1.90;99.90;;;;;;5057825;28;20419;-63
2022/11/28 00:53:16;;;;;;;8.32;6.88;;;1.90;99.90;;;;;;5056166;28;20050;-62
2022/11/28 00:55:43;;;;;;;7.20;6.30;;;1.90;99.90;;;;;;5059526;28;20480;-62
2022/11/28 00:58:10;;;;;;;8.45;7.00;;;2.00;99.90;;;;;;5059689;28;20055;-64
2022/11/28 01:00:37;;;;;;;8.45;5.78;;;1.90;99.90;;;;;;5052977;28;20052;-62
2022/11/28 01:03:04;;;;;;;6.95;6.18;;;2.00;99.90;;;;;;5053335;28;20132;-62
2022/11/28 01:05:31;;;;;;;8.98;7.25;;;2.00;99.90;;;;;;5053978;28;20052;-63
2022/11/28 01:07:58;;;;;;;7.25;6.40;;;2.00;99.90;;;;;;5055552;28;20058;-62
2022/11/28 01:10:25;;;;;;;6.85;5.90;;;2.00;99.90;;;;;;5054999;28;20040;-63
2022/11/28 01:12:52;;;;;;;6.97;6.03;;;2.00;99.90;;;;;;5054104;28;20049;-62
2022/11/28 01:15:19;;;;;;;7.22;5.70;;;2.00;99.90;;;;;;5056219;28;20142;-62
2022/11/28 01:17:46;;;;;;;6.38;5.38;;;2.00;99.90;;;;;;5057369;28;20053;-61
2022/11/28 01:20:13;;;;;;;7.90;6.55;;;2.00;99.90;;;;;;5054956;28;20147;-64
2022/11/28 01:22:40;;;;;;;8.00;6.55;;;2.00;99.90;;;;;;5061425;28;20075;-61
2022/11/28 01:25:07;;;;;;;8.15;6.43;;;2.00;99.90;;;;;;5057883;28;20063;-61
2022/11/28 01:27:34;;;;;;;7.53;5.95;;;2.00;99.90;;;;;;5059756;28;20052;-64
2022/11/28 01:30:01;;;;;;;9.48;6.32;;;2.00;99.90;;;;;;5056542;28;20144;-61
2022/11/28 01:32:28;;;;;;;6.30;5.60;;;2.00;99.90;;;;;;5055309;28;20508;-61
2022/11/28 01:34:55;;;;;;;6.90;5.30;;;2.00;99.90;;;;;;5056426;28;20432;-62
2022/11/28 01:37:21;;;;;;;8.50;5.78;;;2.00;99.90;;;;;;5057144;28;20055;-62
2022/11/28 01:39:48;;;;;;;6.50;5.22;;;2.00;99.90;;;;;;5057474;28;20127;-62
2022/11/28 01:42:17;;;;;;;7.65;6.03;;;2.00;99.90;;;;;;5057895;28;20069;-62
2022/11/28 01:44:47;;;;;;;5.93;5.32;;;1.90;99.90;;;;;;5055822;28;20085;-63
2022/11/28 01:47:19;;;;;;;8.80;5.03;;;2.00;99.90;;;;;;5059145;28;20150;-62
2022/11/28 01:49:47;;;;;;;5.32;4.72;;;1.90;99.90;;;;;;5058012;28;20140;-62
2022/11/28 01:52:18;;;;;;;9.05;5.03;;;1.90;99.90;;;;;;5050677;28;20135;-62
2022/11/28 01:54:47;;;;;;;;;;;1.80;99.90;;;;;;5051912;28;20048;-61
2022/11/28 01:57:19;;;;;;;5.30;4.30;;;1.80;99.90;;;;;;5053969;28;19935;-62
2022/11/28 01:59:55;;;;;;;5.88;4.32;;;1.70;99.90;;;;;;5053826;28;20061;-62
2022/11/28 02:02:28;;;;;;;6.85;4.80;;;1.70;99.90;;;;;;5055469;28;20060;-62
2022/11/28 02:04:56;;;;;;;6.43;5.20;;;1.70;99.90;;;;;;5054431;28;20125;-61
2022/11/28 02:07:23;;;;;;;7.00;5.10;;;1.70;99.90;;;;;;5054173;28;20072;-61
2022/11/28 02:09:50;;;;;;;7.07;5.30;;;1.60;99.90;;;;;;5052224;28;20083;-62
2022/11/28 02:12:45;;;;;;;5.22;4.28;;;1.60;99.90;;;;;;5058830;28;20371;-62
2022/11/28 02:15:18;;;;;;;5.82;4.45;;;1.60;99.90;;;;;;5051490;28;20079;-61
2022/11/28 02:18:08;;;;;;;5.10;4.57;;;1.50;99.90;;;;;;5060217;28;20073;-62
2022/11/28 02:21:05;;;;;;;5.70;5.00;;;1.50;99.90;;;;;;5058023;28;20448;-62
2022/11/28 02:24:10;;;;;;;5.25;3.85;;;1.50;99.90;;;;;;5048776;28;20067;-62
2022/11/28 02:26:51;;;;;;;5.60;4.47;;;1.40;99.90;;;;;;5047062;28;20084;-62
2022/11/28 02:29:51;;;;;;;6.40;4.78;;;1.40;99.90;;;;;;5052026;28;20051;-62
2022/11/28 02:32:48;;;;;;;5.20;4.13;;;1.40;99.90;;;;;;5056682;28;20099;-62
2022/11/28 02:35:40;;;;;;;5.72;4.78;;;1.40;99.90;;;;;;5050893;28;20131;-62
2022/11/28 02:38:29;;;;;;;7.20;5.57;;;1.30;99.90;;;;;;5051556;28;20052;-63
2022/11/28 02:41:02;;;;;;;5.35;4.22;;;1.30;99.90;;;;;;5054592;28;20135;-63
2022/11/28 02:43:51;;;;;;;4.68;4.18;;;1.30;99.90;;;;;;5052791;28;20462;-62
2022/11/28 02:46:27;;;;;;;5.95;4.80;;;1.30;99.90;;;;;;5055246;28;20049;-62
2022/11/28 02:49:04;;;;;;;5.75;4.43;;;1.30;99.90;;;;;;5048582;28;20087;-62
2022/11/28 02:51:42;;;;;;;8.43;4.53;;;1.40;99.90;;;;;;5054731;28;20053;-62
2022/11/28 02:54:11;;;;;;;5.93;5.28;;;1.40;99.90;;;;;;5054594;28;20140;-62
2022/11/28 02:56:45;;;;;;;7.10;5.20;;;1.50;99.90;;;;;;5052887;28;22672;-62
2022/11/28 02:59:36;;;;;;;7.93;5.22;;;1.50;99.90;;;;;;5054900;28;20071;-65
2022/11/28 03:02:22;;;;;;;7.03;5.88;;;1.60;99.90;;;;;;5056649;28;20463;-61
2022/11/28 03:05:13;;;;;;;8.43;5.38;;;1.60;99.90;;;;;;5050662;28;20041;-61
2022/11/28 03:08:08;;;;;;;9.38;6.00;;;1.70;99.90;;;;;;5049737;28;20049;-62
2022/11/28 03:11:18;;;;;;;9.73;6.95;;;1.70;99.90;;;;;;5045821;28;20073;-62
2022/11/28 03:14:29;;;;;;;11.32;6.70;;;1.80;99.90;;;;;;5050170;28;20058;-63
2022/11/28 03:17:06;;;;;;;10.93;7.40;;;1.90;99.90;;;;;;5059365;28;20386;-62
2022/11/28 03:19:38;;;;;;;8.90;6.60;;;2.00;99.90;;;;;;5051056;28;20246;-62
2022/11/28 03:22:20;;;;;;;10.10;6.75;;;2.00;99.90;;;;;;5046978;28;20127;-62
2022/11/28 03:25:22;;;;;;;12.20;8.25;;;2.10;99.90;;;;;;5052280;28;20036;-62
2022/11/28 03:28:01;;;;;;;9.00;6.68;;;2.20;99.90;;;;;;5051228;28;20075;-61
2022/11/28 03:30:35;;;;;;;10.98;7.97;;;2.30;99.90;;;;;;5057293;28;20526;-64
2022/11/28 03:33:04;;;;;;;11.48;7.78;;;2.40;99.90;;;;;;5053369;28;20055;-62
2022/11/28 03:35:36;;;;;;;9.32;6.82;;;2.50;99.90;;;;;;5050282;28;20054;-64
2022/11/28 03:38:12;;;;;;;11.23;8.23;;;2.50;99.90;;;;;;5054895;28;20052;-62
2022/11/28 03:40:44;;;;;;;12.52;8.15;;;2.60;99.90;;;;;;5049398;28;20080;-62
2022/11/28 03:43:18;;;;;;;11.63;7.70;;;2.70;99.90;;;;;;5053181;28;20060;-62
2022/11/28 03:45:49;;;;;;;12.57;9.13;;;2.70;99.90;;;;;;5059824;28;20045;-62
2022/11/28 03:48:30;;;;;;;11.05;7.65;;;2.80;99.90;;;;;;5051629;28;20044;-63
2022/11/28 03:51:26;;;;;;;;;;;2.80;99.90;;;;;;5052677;28;20040;-63
2022/11/28 03:54:13;;;;;;;10.80;8.55;;;2.80;99.90;;;;;;5054044;28;19944;-64
2022/11/28 03:56:48;;;;;;;13.27;8.57;;;2.80;99.90;;;;;;5055860;28;20434;-62
2022/11/28 03:59:48;;;;;;;12.02;8.05;;;2.80;99.90;;;;;;5055399;28;20044;-62
2022/11/28 04:02:41;;;;;;;12.23;8.75;;;2.80;99.90;;;;;;5054062;28;20515;-65
2022/11/28 04:05:29;;;;;;;11.10;7.90;;;2.80;99.90;;;;;;5056993;28;20401;-62
2022/11/28 04:08:18;;;;;;;10.73;7.40;;;2.80;99.90;;;;;;5057942;28;20049;-62
2022/11/28 04:11:07;;;;;;;11.23;8.15;;;2.90;99.90;;;;;;5053561;28;20047;-62
2022/11/28 04:13:41;;;;;;;13.07;9.52;;;2.90;99.90;;;;;;5054592;28;20132;-62
2022/11/28 04:16:25;;;;;;;10.75;7.55;;;2.90;99.90;;;;;;5053469;28;20045;-62
2022/11/28 04:19:10;;;;;;;11.60;7.30;;;2.90;99.90;;;;;;5058414;28;20066;-62
2022/11/28 04:21:53;;;;;;;9.68;7.63;;;2.90;99.90;;;;;;5057184;28;20131;-63
2022/11/28 04:24:25;;;;;;;10.82;8.43;;;2.90;99.90;;;;;;5054739;28;20063;-62
2022/11/28 04:27:03;;;;;;;11.32;8.35;;;3.00;99.90;;;;;;5052039;28;20136;-62
2022/11/28 04:29:37;;;;;;;11.77;8.05;;;3.00;99.90;;;;;;5052916;28;20132;-62
2022/11/28 04:32:05;;;;;;;12.18;8.10;;;3.00;99.90;;;;;;5058926;28;20056;-64
2022/11/28 04:34:35;;;;;;;12.77;9.00;;;3.00;99.90;;;;;;5051370;28;20374;-63
2022/11/28 04:37:05;;;;;;;11.80;7.63;;;3.10;99.90;;;;;;5057001;28;20474;-64
2022/11/28 04:39:38;;;;;;;10.38;8.32;;;3.10;99.90;;;;;;5057050;28;20951;-62
2022/11/28 04:42:12;;;;;;;11.82;8.45;;;3.10;99.90;;;;;;5057313;28;20048;-63
2022/11/28 04:44:51;;;;;;;13.20;9.50;;;3.10;99.90;;;;;;5055527;28;20128;-62
2022/11/28 04:47:18;;;;;;;12.00;9.73;;;3.10;99.90;;;;;;5057485;28;20164;-65
2022/11/28 04:49:45;;;;;;;14.65;10.05;;;3.10;99.90;;;;;;5057422;28;20286;-61
2022/11/28 04:52:36;;;;;;;10.25;8.75;;;3.10;99.90;;;;;;5052401;28;20056;-63
2022/11/28 04:55:21;;;;;;;11.70;8.95;;;3.20;99.90;;;;;;5053649;28;20146;-62
2022/11/28 04:57:53;;;;;;;12.07;8.50;;;3.20;99.90;;;;;;5052244;28;20127;-61
2022/11/28 05:00:24;;;;;;;14.45;9.90;;;3.20;99.90;;;;;;5058065;28;20079;-62
2022/11/28 05:02:53;;;;;;;12.07;8.60;;;3.20;99.90;;;;;;5053914;28;20051;-62
2022/11/28 05:05:27;;;;;;;10.40;8.55;;;3.20;99.90;;;;;;5054752;28;20037;-62
2022/11/28 05:07:54;;;;;;;11.20;9.00;;;3.20;99.90;;;;;;5057530;28;20083;-62
2022/11/28 05:10:21;;;;;;;15.43;9.68;;;3.20;99.90;;;;;;5052590;28;20052;-62
2022/11/28 05:12:47;;;;;;;14.68;9.55;;;3.30;99.90;;;;;;5056720;28;20040;-62
2022/11/28 05:15:17;;;;;;;16.42;10.40;;;3.30;99.90;;;;;;5051635;28;20049;-62
2022/11/28 05:17:45;;;;;;;12.57;9.73;;;3.30;99.90;;;;;;5062073;28;20111;-62
2022/11/28 05:20:13;;;;;;;13.27;9.80;;;3.40;99.90;;;;;;5054039;28;20045;-63
2022/11/28 05:22:40;;;;;;;13.93;10.38;;;3.40;99.90;;;;;;5056153;28;20063;-62
2022/11/28 05:25:07;;;;;;;11.45;8.35;;;3.40;99.90;;;;;;5062416;27;20068;-62
2022/11/28 05:27:34;;;;;;;15.00;10.70;;;3.40;99.90;;;;;;5054624;28;20049;-62
2022/11/28 05:30:01;;;;;;;17.35;11.15;;;3.40;99.90;;;;;;5061170;28;20055;-62
2022/11/28 05:32:30;;;;;;;20.98;13.50;;;3.40;99.90;;;;;;5054829;28;20172;-64
2022/11/28 05:34:57;;;;;;;14.18;10.95;;;3.50;99.90;;;;;;5055984;28;20048;-64
2022/11/28 05:37:24;;;;;;;19.08;11.90;;;3.50;99.90;;;;;;5054809;28;20132;-62
2022/11/28 05:39:51;;;;;;;18.30;13.23;;;3.60;99.90;;;;;;5057069;28;20526;-64
2022/11/28 05:42:18;;;;;;;20.63;14.63;;;3.60;99.90;;;;;;5050715;28;20846;-63
2022/11/28 05:44:46;;;;;;;18.52;13.35;;;3.60;99.90;;;;;;5056167;28;20759;-62
2022/11/28 05:47:14;;;;;;;19.70;13.65;;;3.60;99.90;;;;;;5055843;28;20068;-62
2022/11/28 05:49:42;;;;;;;18.08;12.52;;;3.60;99.90;;;;;;5058675;28;20052;-64
2022/11/28 05:52:09;;;;;;;19.75;13.13;;;3.60;99.90;;;;;;5050257;28;20141;-62
2022/11/28 05:54:36;;;;;;;15.77;11.73;;;3.60;99.90;;;;;;5052721;28;20049;-62
2022/11/28 05:57:05;;;;;;;21.27;14.20;;;3.70;99.90;;;;;;5056279;28;20086;-62
2022/11/28 05:59:32;;;;;;;18.58;12.70;;;3.70;99.90;;;;;;5059848;28;20470;-64
2022/11/28 06:01:59;;;;;;;17.08;11.40;;;3.70;99.90;;;;;;5052264;28;20053;-63
2022/11/28 06:04:27;;;;;;;17.30;12.05;;;3.70;99.90;;;;;;5054287;28;20072;-61
2022/11/28 06:06:54;;;;;;;19.50;13.55;;;3.60;99.90;;;;;;5052673;28;20055;-62
2022/11/28 06:09:21;;;;;;;17.98;11.68;;;3.60;99.90;;;;;;5067074;28;20072;-64
2022/11/28 06:11:51;;;;;;;14.70;10.50;;;3.60;99.90;;;;;;5048972;28;20044;-62
2022/11/28 06:14:19;;;;;;;16.77;10.95;;;3.60;99.90;;;;;;5056306;28;20063;-62
2022/11/28 06:16:45;;;;;;;14.60;10.70;;;3.60;99.90;;;;;;5061462;28;20055;-63
2022/11/28 06:19:13;;;;;;;11.23;8.68;;;3.50;99.90;;;;;;5050472;28;20080;-63
2022/11/28 06:21:40;;;;;;;11.23;8.23;;;3.50;99.90;;;;;;5051015;28;20504;-62
2022/11/28 06:24:08;;;;;;;13.23;8.43;;;3.40;99.90;;;;;;5053676;28;20036;-63
2022/11/28 06:26:35;;;;;;;10.75;7.70;;;3.40;99.90;;;;;;5051150;28;20051;-62
2022/11/28 06:29:03;;;;;;;9.73;7.85;;;3.40;99.90;;;;;;5054910;28;20140;-64
2022/11/28 06:31:30;;;;;;;13.80;9.00;;;3.40;99.90;;;;;;5048405;28;20068;-64
2022/11/28 06:33:57;;;;;;;12.68;9.18;;;3.40;99.90;;;;;;5048724;28;20474;-64
2022/11/28 06:36:38;;;;;;;12.98;8.77;;;3.40;99.90;;;;;;5050310;28;20568;-64
2022/11/28 06:39:09;;;;;;;12.32;8.52;;;3.40;99.90;;;;;;5055915;28;20044;-64
2022/11/28 06:41:36;;;;;;;13.02;10.45;;;3.40;99.90;;;;;;5052549;28;20136;-61
2022/11/28 06:44:03;;;;;;;12.57;9.05;;;3.40;99.90;;;;;;5052547;28;20055;-64
2022/11/28 06:46:30;;;;;;;13.32;10.02;;;3.40;99.90;;;;;;5048994;28;20560;-63
2022/11/28 06:48:57;;;;;;;17.15;10.68;;;3.40;99.90;;;;;;5053399;28;20051;-63
2022/11/28 06:51:24;;;;;;;19.77;12.27;;;3.40;99.90;;;;;;5053452;28;20164;-64
2022/11/28 06:53:52;;;;;;;17.80;12.20;;;3.50;99.90;;;;;;5047745;28;20237;-63
2022/11/28 06:56:20;;;;;;;20.55;12.93;;;3.40;99.90;;;;;;5053268;28;20053;-65
2022/11/28 06:58:52;;;;;;;18.13;12.68;;;3.40;99.90;;;;;;5058289;28;20044;-64
2022/11/28 07:01:21;;;;;;;19.15;14.00;;;3.50;99.90;;;;;;5056135;28;20498;-63
2022/11/28 07:03:49;;;;;;;20.73;13.43;;;3.50;99.90;;;;;;5056551;28;20106;-62
2022/11/28 07:06:18;;;;;;;19.98;14.10;;;3.50;99.90;;;;;;5058380;28;20513;-64
2022/11/28 07:08:46;;;;;;;18.63;14.02;;;3.50;99.90;;;;;;5051028;28;20139;-64
2022/11/28 07:11:28;;;;;;;20.33;14.88;;;3.50;99.90;;;;;;5048770;28;20441;-62
2022/11/28 07:13:56;;;;;;;19.88;14.20;;;3.50;99.90;;;;;;5049897;28;20137;-62
2022/11/28 07:16:30;;;;;;;19.55;12.32;;;3.50;99.90;;;;;;5053930;28;20369;-63
2022/11/28 07:18:58;;;;;;;23.38;13.55;;;3.50;99.90;;;;;;5052694;28;20056;-61
2022/11/28 07:21:25;;;;;;;18.92;13.20;;;3.50;99.90;;;;;;5052555;28;20047;-61
2022/11/28 07:23:52;;;;;;;20.25;13.00;;;3.50;99.90;;;;;;5048982;28;20072;-62
2022/11/28 07:26:20;;;;;;;17.75;12.20;;;3.50;99.90;;;;;;5050956;28;20061;-65
2022/11/28 07:28:48;;;;;;;18.85;11.90;;;3.40;99.90;;;;;;5053753;28;20128;-62
2022/11/28 07:31:18;;;;;;;19.25;12.57;;;3.40;99.90;;;;;;5068696;28;20044;-62
2022/11/28 07:33:48;;;;;;;19.38;14.00;;;3.40;99.90;;;;;;5054905;28;20053;-61
2022/11/28 07:36:16;;;;;;;20.05;13.40;;;3.30;99.90;;;;;;5053455;28;20127;-62
2022/11/28 07:38:47;;;;;;;21.48;13.90;;;3.30;99.90;;;;;;5054567;28;20154;-62
2022/11/28 07:41:15;;;;;;;22.42;14.82;;;3.30;99.90;;;;;;5054395;28;20102;-62
2022/11/28 07:43:44;;;;;;;23.63;15.57;;;3.40;99.90;;;;;;5061188;28;20044;-62
2022/11/28 07:46:13;;;;;;;24.20;15.13;;;3.30;99.90;;;;;;5054973;28;20135;-62
2022/11/28 07:48:41;;;;;;;20.50;15.48;;;3.30;99.90;;;;;;5055079;28;20462;-61
2022/11/28 07:51:23;;;;;;;23.75;15.07;;;3.30;99.90;;;;;;5054522;28;20044;-62
2022/11/28 07:53:50;;;;;;;21.35;14.80;;;3.30;99.90;;;;;;5055995;28;20056;-62
2022/11/28 07:56:20;;;;;;;19.25;12.77;;;3.30;99.90;;;;;;5052884;28;20597;-61
2022/11/28 07:58:48;;;;;;;17.95;11.05;;;3.30;99.90;;;;;;5060372;28;20078;-62
2022/11/28 08:01:21;;;;;;;20.02;14.18;;;3.40;99.90;;;;;;5056767;28;20783;-63
2022/11/28 08:03:49;;;;;;;20.08;15.05;;;3.40;99.90;;;;;;5059303;28;20063;-62
2022/11/28 08:06:18;;;;;;;21.83;14.35;;;3.50;99.90;;;;;;5054032;28;20051;-62
2022/11/28 08:08:46;;;;;;;32.10;15.32;;;3.50;99.90;;;;;;5054922;28;20058;-62
2022/11/28 08:11:15;;;;;;;22.33;15.20;;;3.60;99.90;;;;;;5055490;28;20358;-63
2022/11/28 08:13:42;;;;;;;22.33;14.07;;;3.60;99.90;;;;;;5059022;28;20073;-61
2022/11/28 08:16:13;;;;;;;24.60;16.67;;;3.60;99.90;;;;;;5052472;28;20059;-62
2022/11/28 08:18:40;;;;;;;24.88;15.70;;;3.60;99.90;;;;;;5055636;28;20075;-64
2022/11/28 08:21:10;;;;;;;25.75;16.92;;;3.70;99.90;;;;;;5061652;28;20041;-61
2022/11/28 08:23:38;;;;;;;21.88;15.98;;;3.70;99.90;;;;;;5059490;28;20072;-62
2022/11/28 08:26:08;;;;;;;24.20;16.02;;;3.80;99.90;;;;;;5064367;28;20454;-61
2022/11/28 08:28:35;;;;;;;23.75;15.80;;;3.80;99.90;;;;;;5051179;28;20044;-61
2022/11/28 08:31:24;;;;;;;21.30;14.93;;;3.80;99.90;;;;;;5054414;28;20040;-62
2022/11/28 08:33:53;;;;;;;26.35;15.88;;;3.90;99.90;;;;;;5055085;28;20061;-62
2022/11/28 08:36:21;;;;;;;22.58;13.60;;;3.90;99.90;;;;;;5057694;28;20665;-63
2022/11/28 08:38:48;;;;;;;22.55;16.73;;;3.90;99.90;;;;;;5062478;28;20116;-62
2022/11/28 08:41:35;;;;;;;22.83;15.23;;;3.90;99.90;;;;;;5066674;28;20056;-62
2022/11/28 08:44:02;;;;;;;22.98;16.33;;;3.90;99.90;;;;;;5055804;28;20740;-62
2022/11/28 08:46:29;;;;;;;21.52;14.02;;;3.90;99.90;;;;;;5061889;28;20494;-62
2022/11/28 08:48:56;;;;;;;23.98;14.68;;;3.90;99.90;;;;;;5062343;28;20049;-62
2022/11/28 08:51:23;;;;;;;23.40;15.35;;;4.00;99.90;;;;;;5061611;28;20135;-64
2022/11/28 08:53:51;;;;;;;23.08;15.27;;;4.00;99.90;;;;;;5063742;28;20044;-62
2022/11/28 08:56:25;;;;;;;25.90;16.42;;;4.00;99.90;;;;;;5061297;28;20125;-62
2022/11/28 08:58:52;;;;;;;25.10;14.88;;;4.00;99.90;;;;;;5055544;28;20120;-62
2022/11/28 09:01:21;;;;;;;22.65;14.45;;;4.00;99.90;;;;;;5060146;28;20127;-62
2022/11/28 09:03:49;;;;;;;27.90;15.80;;;4.10;99.90;;;;;;5062933;28;20124;-62
2022/11/28 09:06:17;;;;;;;23.63;15.07;;;4.10;99.90;;;;;;5061931;28;20090;-62
2022/11/28 09:08:44;;;;;;;17.63;13.27;;;4.10;99.90;;;;;;5062045;28;20066;-62
2022/11/28 09:11:13;;;;;;;22.67;14.00;;;4.10;99.90;;;;;;5058966;28;20041;-62
2022/11/28 09:13:40;;;;;;;24.98;15.57;;;4.20;99.90;;;;;;5061091;28;20060;-62
2022/11/28 09:16:08;;;;;;;23.10;15.95;;;4.20;99.90;;;;;;5062183;28;20045;-62
2022/11/28 09:18:35;;;;;;;22.77;15.82;;;4.20;99.90;;;;;;5060878;28;20048;-64
2022/11/28 09:21:08;;;;;;;21.70;13.32;;;4.20;99.90;;;;;;5059926;28;20104;-62
2022/11/28 09:23:39;;;;;;;21.65;14.75;;;4.20;99.90;;;;;;5063003;28;20047;-62
2022/11/28 09:26:11;;;;;;;20.88;13.55;;;4.30;99.90;;;;;;5061030;28;20040;-62
2022/11/28 09:28:38;;;;;;;26.77;17.25;;;4.30;99.90;;;;;;5061074;28;20471;-63
2022/11/28 09:31:06;;;;;;;22.40;16.15;;;4.30;99.90;;;;;;5060908;28;20054;-64
2022/11/28 09:33:33;;;;;;;24.38;15.48;;;4.20;99.90;;;;;;5060580;28;20508;-62
2022/11/28 09:36:06;;;;;;;21.80;14.55;;;4.20;99.90;;;;;;5059734;28;20045;-62
2022/11/28 09:38:33;;;;;;;23.25;15.25;;;4.20;99.90;;;;;;5056524;28;20152;-61
2022/11/28 09:41:02;;;;;;;26.00;16.02;;;4.20;99.90;;;;;;5056870;28;20052;-62
2022/11/28 09:43:33;;;;;;;21.70;14.23;;;4.20;99.90;;;;;;5064323;28;20545;-62
2022/11/28 09:46:05;;;;;;;26.45;15.10;;;4.20;99.90;;;;;;5059519;28;20144;-63
2022/11/28 09:48:37;;;;;;;22.95;15.48;;;4.30;99.90;;;;;;5059616;28;20097;-62
2022/11/28 09:51:29;;;;;;;24.95;15.23;;;4.30;99.90;;;;;;5052413;28;20495;-64
2022/11/28 09:54:19;;;;;;;25.25;16.73;;;4.30;99.90;;;;;;5054724;28;20450;-62
2022/11/28 09:56:47;;;;;;;;;;;4.30;99.90;;;;;;5055368;28;20048;-62
2022/11/28 09:59:29;;;;;;;20.73;13.32;;;4.30;99.90;;;;;;5060011;28;20361;-63
2022/11/28 10:02:16;;;;;;;24.10;14.40;;;4.30;99.90;;;;;;5058275;28;20057;-62
2022/11/28 10:04:54;;;;;;;23.23;13.05;;;4.40;99.90;;;;;;5055497;28;20571;-62
2022/11/28 10:07:24;;;;;;;21.92;13.35;;;4.40;99.90;;;;;;5059066;28;20139;-62
2022/11/28 10:09:59;;;;;;;21.15;14.07;;;4.40;99.90;;;;;;5065184;28;20040;-62
2022/11/28 10:12:44;;;;;;;17.73;11.35;;;4.50;99.90;;;;;;5054111;28;20036;-63
2022/11/28 10:15:20;;;;;;;18.27;11.20;;;4.50;99.90;;;;;;5061286;28;20373;-62
2022/11/28 10:18:11;;;;;;;12.88;9.38;;;4.60;99.90;;;;;;5058830;28;20056;-62
2022/11/28 10:20:42;;;;;;;15.75;10.60;;;4.60;99.90;;;;;;5056776;28;20759;-62
2022/11/28 10:23:23;;;;;;;15.43;10.18;;;4.70;99.90;;;;;;5058784;28;20048;-63
2022/11/28 10:26:03;;;;;;;15.25;11.10;;;4.70;99.90;;;;;;5052700;28;20139;-62
2022/11/28 10:28:34;;;;;;;14.93;9.65;;;4.80;99.90;;;;;;5056316;28;20052;-62
2022/11/28 10:31:33;;;;;;;12.57;9.15;;;4.80;99.90;;;;;;5059110;28;20389;-63
2022/11/28 10:34:25;;;;;;;14.32;10.35;;;4.80;99.90;;;;;;5059391;28;20106;-64
2022/11/28 10:37:12;;;;;;;12.73;9.63;;;4.90;99.90;;;;;;5054739;28;20037;-62
2022/11/28 10:39:43;;;;;;;12.48;8.90;;;4.90;99.90;;;;;;5054768;28;20415;-61
2022/11/28 10:42:22;;;;;;;15.50;10.65;;;4.90;99.90;;;;;;5056114;28;20044;-63
2022/11/28 10:44:58;;;;;;;9.82;8.35;;;5.00;99.90;;;;;;5057361;28;20052;-62
2022/11/28 10:47:28;;;;;;;9.68;8.68;;;5.00;99.90;;;;;;5057138;28;20890;-63
2022/11/28 10:50:05;;;;;;;15.30;8.17;;;5.10;99.90;;;;;;5061010;28;20067;-62
2022/11/28 10:52:37;;;;;;;10.50;8.50;;;5.10;99.90;;;;;;5058840;28;20281;-62
2022/11/28 10:55:25;;;;;;;12.25;9.50;;;5.10;99.90;;;;;;5059458;28;20040;-61
2022/11/28 10:58:27;;;;;;;9.52;8.35;;;5.10;99.90;;;;;;5058382;28;20123;-62
2022/11/28 11:00:56;;;;;;;14.35;9.07;;;5.10;99.90;;;;;;5053850;28;20539;-62
2022/11/28 11:03:29;;;;;;;11.70;9.48;;;5.10;99.90;;;;;;5057147;28;20101;-62
2022/11/28 11:05:56;;;;;;;13.07;10.05;;;5.10;99.90;;;;;;5059722;28;20131;-64
2022/11/28 11:08:28;;;;;;;13.73;9.63;;;5.10;99.90;;;;;;5057647;28;20064;-62
2022/11/28 11:11:01;;;;;;;13.10;9.48;;;5.20;99.90;;;;;;5056477;28;20056;-61
2022/11/28 11:13:31;;;;;;;13.95;9.60;;;5.20;99.90;;;;;;5054010;28;20367;-62
2022/11/28 11:15:59;;;;;;;12.88;10.02;;;5.20;99.90;;;;;;5056060;28;20094;-63
2022/11/28 11:18:29;;;;;;;13.27;9.90;;;5.20;99.90;;;;;;5051523;28;20140;-64
2022/11/28 11:21:17;;;;;;;11.60;9.68;;;5.20;99.90;;;;;;5059139;28;20044;-67
2022/11/28 11:23:45;;;;;;;16.20;9.60;;;5.30;99.90;;;;;;5056568;28;20048;-61
2022/11/28 11:26:28;;;;;;;13.02;10.05;;;5.30;99.90;;;;;;5057116;28;20478;-62
2022/11/28 11:28:55;;;;;;;10.50;9.05;;;5.30;99.90;;;;;;5050788;28;20151;-64
2022/11/28 11:31:32;;;;;;;12.68;8.98;;;5.30;99.90;;;;;;5054294;28;20387;-61
2022/11/28 11:34:05;;;;;;;14.88;9.77;;;5.40;99.90;;;;;;5054786;28;20563;-61
2022/11/28 11:36:34;;;;;;;11.18;8.43;;;5.40;99.90;;;;;;5055019;28;20508;-62
2022/11/28 11:39:10;;;;;;;10.40;8.13;;;5.30;99.90;;;;;;5052733;28;20721;-62
2022/11/28 11:41:38;;;;;;;13.95;9.65;;;5.30;99.90;;;;;;5052251;28;20052;-65
2022/11/28 11:44:15;;;;;;;11.88;8.77;;;5.30;99.90;;;;;;5053474;28;20049;-63
2022/11/28 11:47:00;;;;;;;12.05;8.60;;;5.30;99.90;;;;;;5054665;28;20156;-61
2022/11/28 11:49:33;;;;;;;10.00;8.57;;;5.30;99.90;;;;;;5055896;28;20064;-65
2022/11/28 11:52:14;;;;;;;11.18;8.68;;;5.30;99.90;;;;;;5053966;28;20041;-62
2022/11/28 11:54:56;;;;;;;9.57;8.18;;;5.30;99.90;;;;;;5050068;28;20528;-62
2022/11/28 11:57:37;;;;;;;10.45;8.45;;;5.30;99.90;;;;;;5053248;28;20402;-63
2022/11/28 12:00:10;;;;;;;11.60;9.23;;;5.30;99.90;;;;;;5056310;28;20098;-61
2022/11/28 12:03:09;;;;;;;11.20;8.05;;;5.30;99.90;;;;;;5049778;28;20200;-64
2022/11/28 12:05:53;;;;;;;9.88;7.82;;;5.30;99.90;;;;;;5056800;28;20058;-63
2022/11/28 12:08:59;;;;;;;10.38;8.63;;;5.30;99.90;;;;;;5050572;28;20417;-62
2022/11/28 12:11:30;;;;;;;10.25;8.25;;;5.30;99.90;;;;;;5058329;28;20510;-61
2022/11/28 12:14:03;;;;;;;9.88;7.70;;;5.30;99.90;;;;;;5057020;28;20102;-62
2022/11/28 12:16:45;;;;;;;11.63;8.48;;;5.30;99.90;;;;;;5056398;28;20060;-64
2022/11/28 12:19:22;;;;;;;10.98;8.43;;;5.40;99.90;;;;;;5061353;28;20075;-62
2022/11/28 12:22:11;;;;;;;9.98;8.50;;;5.30;99.90;;;;;;5064097;28;20727;-62
2022/11/28 12:24:46;;;;;;;9.68;7.18;;;5.30;99.90;;;;;;5056194;28;20087;-64
2022/11/28 12:27:38;;;;;;;11.27;8.57;;;5.30;99.90;;;;;;5063389;28;20048;-62
2022/11/28 12:30:17;;;;;;;11.77;8.80;;;5.20;99.90;;;;;;5066937;28;20447;-65
2022/11/28 12:33:19;;;;;;;10.77;7.88;;;5.20;99.90;;;;;;5063356;28;20068;-61
2022/11/28 12:36:17;;;;;;;11.50;8.88;;;5.20;99.90;;;;;;5063304;28;20634;-62
2022/11/28 12:38:59;;;;;;;11.43;9.00;;;5.10;99.90;;;;;;5059023;28;20045;-62
2022/11/28 12:41:35;;;;;;;8.45;7.05;;;5.10;99.90;;;;;;5060628;28;20056;-62
2022/11/28 12:44:28;;;;;;;13.35;10.00;;;5.10;99.90;;;;;;5060946;28;20132;-62
2022/11/28 12:47:15;;;;;;;12.10;9.73;;;5.10;99.90;;;;;;5061005;28;20135;-64
2022/11/28 12:49:58;;;;;;;12.93;8.85;;;5.20;99.90;;;;;;5060901;28;20075;-61
2022/11/28 12:52:30;;;;;;;9.20;7.78;;;5.10;99.90;;;;;;5059622;28;20508;-63
2022/11/28 12:55:02;;;;;;;10.65;8.18;;;5.10;99.90;;;;;;5061975;28;20474;-64
2022/11/28 12:57:52;;;;;;;10.55;8.02;;;5.10;99.90;;;;;;5055656;28;20060;-66
2022/11/28 13:00:22;;;;;;;10.98;8.63;;;5.10;99.90;;;;;;5057499;28;20049;-63
2022/11/28 13:03:28;;;;;;;19.75;8.48;;;5.10;99.90;;;;;;5060746;28;20385;-62
2022/11/28 13:06:05;;;;;;;9.55;8.00;;;5.10;99.90;;;;;;5057790;28;20048;-62
2022/11/28 13:08:47;;;;;;;9.23;7.25;;;5.10;99.90;;;;;;5056649;28;20068;-63
2022/11/28 13:11:34;;;;;;;9.88;7.38;;;5.10;99.90;;;;;;5060443;28;20045;-61
2022/11/28 13:14:13;;;;;;;9.43;8.48;;;5.10;99.90;;;;;;5056509;28;20044;-63
2022/11/28 13:16:49;;;;;;;7.68;6.60;;;5.00;99.90;;;;;;5056349;28;20053;-61
2022/11/28 13:19:26;;;;;;;9.63;8.70;;;5.00;99.90;;;;;;5058588;28;20059;-63
2022/11/28 13:22:16;;;;;;;10.70;8.60;;;5.00;99.90;;;;;;5061753;28;20156;-63
2022/11/28 13:25:02;;;;;;;9.33;8.33;;;5.00;99.90;;;;;;5059067;28;20041;-62